createdAt,value
2022-11-21T00:05:01.878Z,2.75
2022-11-21T00:10:06.731Z,2.19
2022-11-21T00:15:10.349Z,2.86
2022-11-21T00:20:15.299Z,3.00
2022-11-21T00:25:19.494Z,3.07
2022-11-21T00:30:22.582Z,2.99
2022-11-21T00:35:25.411Z,2.79
2022-11-21T00:40:29.316Z,3.13
2022-11-21T00:45:31.969Z,3.14
2022-11-21T00:50:34.547Z,3.42
2022-11-21T00:55:38.477Z,3.37
2022-11-21T01:00:41.172Z,3.38
2022-11-21T01:05:44.139Z,3.39
2022-11-21T01:10:48.093Z,3.35
2022-11-21T01:15:50.666Z,3.21
2022-11-21T01:20:53.242Z,3.22
2022-11-21T01:26:02.197Z,3.23
2022-11-21T01:31:07.347Z,3.32
2022-11-21T01:36:12.878Z,3.46
2022-11-21T01:41:20.216Z,3.41
2022-11-21T01:46:24.492Z,3.46
2022-11-21T01:51:38.709Z,3.53
2022-11-21T01:56:50.610Z,3.48
2022-11-21T02:01:56.511Z,3.48
2022-11-21T02:07:00.316Z,3.44
2022-11-21T02:12:12.646Z,3.44
2022-11-21T02:17:15.210Z,3.15
2022-11-21T02:22:26.333Z,3.08
2022-11-21T02:27:30.643Z,3.25
2022-11-21T02:32:35.868Z,3.28
2022-11-21T02:37:40.872Z,3.18
2022-11-21T02:42:52.797Z,3.19
2022-11-21T02:48:00.830Z,2.70
2022-11-21T02:53:08.518Z,2.95
2022-11-21T02:58:13.338Z,2.80
2022-11-21T03:03:18.637Z,2.66
2022-11-21T03:08:21.198Z,2.39
2022-11-21T03:13:25.161Z,2.26
2022-11-21T03:18:27.777Z,2.49
2022-11-21T03:23:30.311Z,1.99
2022-11-21T03:28:34.258Z,2.15
2022-11-21T03:33:36.836Z,1.77
2022-11-21T03:38:40.730Z,1.49
2022-11-21T03:43:44.654Z,1.19
2022-11-21T03:48:47.178Z,1.76
2022-11-21T03:53:50.021Z,1.45
2022-11-21T03:58:54.142Z,1.07
2022-11-21T04:03:57.053Z,1.39
2022-11-21T04:08:59.685Z,1.37
2022-11-21T04:14:03.684Z,1.12
2022-11-21T04:19:06.249Z,1.12
2022-11-21T04:24:09.337Z,1.47
2022-11-21T04:29:13.228Z,1.20
2022-11-21T04:34:15.948Z,1.32
2022-11-21T04:39:19.640Z,1.45
2022-11-21T04:44:23.553Z,1.18
2022-11-21T04:49:26.120Z,1.29
2022-11-21T04:54:29.186Z,1.29
2022-11-21T04:59:33.463Z,0.91
2022-11-21T05:04:36.030Z,0.60
2022-11-21T05:09:38.618Z,0.58
2022-11-21T05:14:42.511Z,1.14
2022-11-21T05:19:45.327Z,1.27
2022-11-21T05:24:47.982Z,1.36
2022-11-21T05:29:52.062Z,1.77
2022-11-21T05:34:54.653Z,1.72
2022-11-21T05:39:57.196Z,1.74
2022-11-21T05:45:01.198Z,1.66
2022-11-21T05:50:07.441Z,1.60
2022-11-21T05:55:10.361Z,1.58
2022-11-21T06:00:15.787Z,1.78
2022-11-21T06:05:18.343Z,1.71
2022-11-21T06:10:23.087Z,1.49
2022-11-21T06:15:27.123Z,1.37
2022-11-21T06:20:29.748Z,1.61
2022-11-21T06:25:32.338Z,1.13
2022-11-21T06:30:36.330Z,0.80
2022-11-21T06:35:40.160Z,0.87
2022-11-21T06:40:42.732Z,0.79
2022-11-21T06:45:46.677Z,0.75
2022-11-21T06:50:49.415Z,1.02
2022-11-21T06:55:52.037Z,1.41
2022-11-21T07:00:56.251Z,1.77
2022-11-21T07:06:01.743Z,1.61
2022-11-21T07:16:32.456Z,1.71
2022-11-21T07:21:35.295Z,1.35
2022-11-21T07:26:37.840Z,1.48
2022-11-21T07:31:41.702Z,1.32
2022-11-21T07:36:44.309Z,1.36
2022-11-21T07:41:46.914Z,1.40
2022-11-21T07:46:50.851Z,1.67
2022-11-21T07:51:53.629Z,1.86
2022-11-21T07:56:56.448Z,1.74
2022-11-21T08:02:00.509Z,1.70
2022-11-21T08:07:06.200Z,1.78
2022-11-21T08:12:10.481Z,1.20
2022-11-21T08:17:14.922Z,2.16
2022-11-21T08:22:18.572Z,1.81
2022-11-21T08:27:21.625Z,2.39
2022-11-21T08:32:25.773Z,2.25
2022-11-21T08:37:29.050Z,2.50
2022-11-21T08:42:31.787Z,2.76
2022-11-21T08:47:37.783Z,2.99
2022-11-21T08:52:40.459Z,3.12
2022-11-21T08:57:43.811Z,2.80
2022-11-21T09:02:50.757Z,2.88
2022-11-21T09:07:58.281Z,2.81
2022-11-21T09:13:01.221Z,2.42
2022-11-21T09:18:07.585Z,2.23
2022-11-21T09:23:12.116Z,2.37
2022-11-21T09:28:16.758Z,2.13
2022-11-21T09:33:20.702Z,2.59
2022-11-21T09:38:24.391Z,2.62
2022-11-21T09:43:43.621Z,2.76
2022-11-21T09:48:56.059Z,2.34
2022-11-21T09:54:03.213Z,1.89
2022-11-21T09:59:20.917Z,3.05
2022-11-21T10:04:25.079Z,3.32
2022-11-21T10:09:42.667Z,2.56
2022-11-21T10:14:57.243Z,2.91
2022-11-21T10:20:24.682Z,3.09
2022-11-21T10:25:31.104Z,3.42
2022-11-21T10:30:35.014Z,3.12
2022-11-21T10:35:43.388Z,2.34
2022-11-21T10:40:48.494Z,2.75
2022-11-21T10:45:51.868Z,2.32
2022-11-21T10:51:18.943Z,2.17
2022-11-21T10:56:23.800Z,1.55
2022-11-21T11:01:29.851Z,2.56
2022-11-21T11:06:33.948Z,2.15
2022-11-21T11:11:36.543Z,1.72
2022-11-21T11:16:46.115Z,2.40
2022-11-21T11:21:50.750Z,2.69
2022-11-21T11:26:58.619Z,1.74
2022-11-21T11:32:04.274Z,2.62
2022-11-21T11:37:16.798Z,2.35
2022-11-21T11:43:05.345Z,2.60
2022-11-21T11:48:11.285Z,2.25
2022-11-21T11:53:19.513Z,1.56
2022-11-21T11:58:27.916Z,1.52
2022-11-21T12:03:40.721Z,1.55
2022-11-21T12:08:53.566Z,1.85
2022-11-21T12:13:57.374Z,2.50
2022-11-21T12:19:06.392Z,1.71
2022-11-21T12:24:12.669Z,1.13
2022-11-21T12:29:28.065Z,1.26
2022-11-21T12:34:45.554Z,0.92
2022-11-21T12:40:21.030Z,1.57
2022-11-21T12:45:34.384Z,1.24
2022-11-21T12:51:07.105Z,0.81
2022-11-21T12:56:19.774Z,0.77
2022-11-21T13:01:32.602Z,1.73
2022-11-21T13:06:40.757Z,1.31
2022-11-21T13:12:00.435Z,0.71
2022-11-21T13:17:15.890Z,0.89
2022-11-21T13:22:50.654Z,0.38
2022-11-21T13:27:55.317Z,1.11
2022-11-21T13:32:59.155Z,1.68
2022-11-21T13:38:12.518Z,1.19
2022-11-21T13:43:33.269Z,1.87
2022-11-21T13:49:05.725Z,1.88
2022-11-21T13:54:28.641Z,1.22
2022-11-21T13:59:53.183Z,1.34
2022-11-21T14:05:14.676Z,1.22
2022-11-21T14:10:33.821Z,1.79
2022-11-21T14:15:48.735Z,1.24
2022-11-21T14:20:56.475Z,2.41
2022-11-21T14:26:03.058Z,1.55
2022-11-21T14:31:08.287Z,1.86
2022-11-21T14:36:15.308Z,2.59
2022-11-21T14:41:27.928Z,2.85
2022-11-21T14:46:33.301Z,2.60
2022-11-21T14:51:37.609Z,3.25
2022-11-21T14:56:42.647Z,2.60
2022-11-21T15:01:56.900Z,2.75
2022-11-21T15:06:59.843Z,2.98
2022-11-21T15:12:06.110Z,3.20
2022-11-21T15:17:14.828Z,3.65
2022-11-21T15:22:28.278Z,2.50
2022-11-21T15:27:33.801Z,2.23
2022-11-21T15:33:08.488Z,2.42
2022-11-21T15:38:23.770Z,2.19
2022-11-21T15:43:43.125Z,2.60
2022-11-21T15:48:48.653Z,2.57
2022-11-21T15:53:55.554Z,2.00
2022-11-21T15:59:07.707Z,2.47
2022-11-21T16:04:13.324Z,2.45
2022-11-21T16:09:15.888Z,2.44
2022-11-21T16:14:19.149Z,2.57
2022-11-21T16:19:23.160Z,2.28
2022-11-21T16:24:25.932Z,2.94
2022-11-21T16:29:28.700Z,2.70
2022-11-21T16:34:33.092Z,2.71
2022-11-21T16:39:35.970Z,2.45
2022-11-21T16:44:38.701Z,3.13
2022-11-21T16:49:48.504Z,3.40
2022-11-21T16:54:51.419Z,3.52
2022-11-21T16:59:55.969Z,3.56
2022-11-21T17:05:01.534Z,2.94
2022-11-21T17:10:04.991Z,2.21
2022-11-21T17:15:09.843Z,3.15
2022-11-21T17:20:14.483Z,3.33
2022-11-21T17:25:19.675Z,3.47
2022-11-21T17:30:23.278Z,3.44
2022-11-21T17:35:27.943Z,2.67
2022-11-21T17:40:30.522Z,2.76
2022-11-21T17:45:36.745Z,2.49
2022-11-21T17:50:40.930Z,3.18
2022-11-21T17:55:43.518Z,3.01
2022-11-21T18:00:46.108Z,2.74
2022-11-21T18:05:51.887Z,3.16
2022-11-21T18:10:54.737Z,3.36
2022-11-21T18:16:00.437Z,3.11
2022-11-21T18:21:06.692Z,1.97
2022-11-21T18:26:13.532Z,1.74
2022-11-21T18:31:18.027Z,2.41
2022-11-21T18:36:22.559Z,2.32
2022-11-21T18:41:26.998Z,2.34
2022-11-21T18:46:30.394Z,2.06
2022-11-21T18:51:35.100Z,2.19
2022-11-21T18:56:38.999Z,2.19
2022-11-21T19:01:41.829Z,2.01
2022-11-21T19:06:45.992Z,1.96
2022-11-21T19:11:48.849Z,2.28
2022-11-21T19:16:51.443Z,1.90
2022-11-21T19:21:57.025Z,2.09
2022-11-21T19:26:59.594Z,2.12
2022-11-21T19:32:02.337Z,1.78
2022-11-21T19:37:06.268Z,1.84
2022-11-21T19:42:13.593Z,1.52
2022-11-21T19:47:16.178Z,1.24
2022-11-21T19:52:24.909Z,0.73
2022-11-21T19:57:30.507Z,1.54
2022-11-21T20:02:33.026Z,1.51
2022-11-21T20:07:37.054Z,1.55
2022-11-21T20:12:39.634Z,1.20
2022-11-21T20:17:50.187Z,1.61
2022-11-21T20:22:54.118Z,1.71
2022-11-21T20:27:56.701Z,1.63
2022-11-21T20:32:59.244Z,0.48
2022-11-21T20:38:03.229Z,1.05
2022-11-21T20:43:05.913Z,1.36
2022-11-21T20:48:11.847Z,1.80
2022-11-21T20:58:42.293Z,1.59
2022-11-21T21:03:44.868Z,0.91
2022-11-21T21:08:49.256Z,1.39
2022-11-21T21:13:52.612Z,1.27
2022-11-21T21:18:56.563Z,0.89
2022-11-21T21:24:02.027Z,0.66
2022-11-21T21:29:05.401Z,0.22
2022-11-21T21:34:09.672Z,1.14
2022-11-21T21:39:14.114Z,1.14
2022-11-21T21:44:17.225Z,1.48
2022-11-21T21:49:19.980Z,1.62
2022-11-21T21:54:27.494Z,1.52
2022-11-21T21:59:30.505Z,1.44
2022-11-21T22:04:33.882Z,1.38
2022-11-21T22:09:38.112Z,0.62
2022-11-21T22:14:40.866Z,0.79
2022-11-21T22:19:52.640Z,0.96
2022-11-21T22:24:56.620Z,1.15
2022-11-21T22:29:59.203Z,1.19
2022-11-21T22:35:01.783Z,1.19
2022-11-21T22:40:06.784Z,1.10
2022-11-21T22:45:10.683Z,0.75
2022-11-21T22:50:13.667Z,1.00
2022-11-21T22:55:18.032Z,1.14
2022-11-21T23:00:20.877Z,0.93
2022-11-21T23:05:23.474Z,1.00
2022-11-21T23:10:27.705Z,0.81
2022-11-21T23:15:30.292Z,0.98
2022-11-21T23:20:32.938Z,0.95
2022-11-21T23:25:36.968Z,0.91
2022-11-21T23:30:39.560Z,0.77
2022-11-21T23:35:43.529Z,1.11
2022-11-21T23:40:48.596Z,1.13
2022-11-21T23:45:52.407Z,1.19
2022-11-21T23:50:57.911Z,0.87
2022-11-21T23:56:01.863Z,0.84
